createdAt,value
2023-04-21T00:00:54.045Z,62.03
2023-04-21T00:03:41.644Z,61.78
2023-04-21T00:06:23.141Z,61.66
2023-04-21T00:09:29.426Z,61.41
2023-04-21T00:12:21.529Z,60.98
2023-04-21T00:15:09.725Z,60.97
2023-04-21T00:18:27.932Z,60.79
2023-04-21T00:21:05.294Z,60.66
2023-04-21T00:23:59.916Z,61.12
2023-04-21T00:27:17.958Z,60.51
2023-04-21T00:30:08.043Z,60.51
2023-04-21T00:33:01.598Z,58.12
2023-04-21T00:35:50.567Z,56.04
2023-04-21T00:38:58.683Z,56.42
2023-04-21T00:42:02.585Z,57.63
2023-04-21T00:44:53.488Z,61.66
2023-04-21T00:47:37.352Z,65.12
2023-04-21T00:50:52.723Z,65.53
2023-04-21T00:53:49.447Z,65.45
2023-04-21T00:56:41.379Z,65.14
2023-04-21T00:59:31.370Z,64.77
2023-04-21T01:02:45.778Z,63.90
2023-04-21T01:05:55.256Z,63.67
2023-04-21T01:08:50.553Z,62.88
2023-04-21T01:11:57.179Z,62.34
2023-04-21T01:14:51.834Z,62.13
2023-04-21T01:17:46.448Z,61.94
2023-04-21T01:20:57.705Z,61.97
2023-04-21T01:23:59.908Z,61.78
2023-04-21T01:27:25.903Z,61.51
2023-04-21T01:30:22.452Z,61.59
2023-04-21T01:33:26.351Z,61.09
2023-04-21T01:36:32.835Z,60.84
2023-04-21T01:39:28.538Z,60.93
2023-04-21T01:42:40.543Z,60.86
2023-04-21T01:45:49.827Z,60.98
2023-04-21T01:49:02.889Z,61.03
2023-04-21T01:51:53.499Z,61.12
2023-04-21T01:55:13.492Z,61.74
2023-04-21T01:58:25.996Z,61.52
2023-04-21T02:01:38.424Z,61.28
2023-04-21T02:04:56.759Z,61.13
2023-04-21T02:08:12.240Z,60.84
2023-04-21T02:11:15.436Z,60.72
2023-04-21T02:14:17.701Z,60.75
2023-04-21T02:17:34.496Z,60.61
2023-04-21T02:20:46.514Z,60.60
2023-04-21T02:24:15.504Z,60.61
2023-04-21T02:27:29.565Z,60.58
2023-04-21T02:30:28.140Z,60.64
2023-04-21T02:33:56.016Z,60.56
2023-04-21T02:37:30.951Z,60.59
2023-04-21T02:40:20.007Z,60.65
2023-04-21T02:43:36.907Z,60.47
2023-04-21T02:46:57.423Z,60.28
2023-04-21T02:50:18.478Z,60.26
2023-04-21T02:53:47.534Z,60.26
2023-04-21T02:56:49.496Z,60.38
2023-04-21T03:00:24.026Z,60.42
2023-04-21T03:03:46.539Z,60.64
2023-04-21T03:07:21.199Z,60.63
2023-04-21T03:10:46.815Z,60.61
2023-04-21T03:14:02.818Z,60.29
2023-04-21T03:17:45.687Z,60.22
2023-04-21T03:21:15.141Z,60.58
2023-04-21T03:24:53.250Z,61.01
2023-04-21T03:28:25.835Z,60.54
2023-04-21T03:31:53.829Z,60.40
2023-04-21T03:35:34.588Z,60.47
2023-04-21T03:39:24.032Z,60.41
2023-04-21T03:42:57.354Z,60.36
2023-04-21T03:46:22.837Z,60.24
2023-04-21T03:49:49.726Z,57.15
2023-04-21T03:53:38.832Z,55.08
2023-04-21T03:57:08.299Z,56.14
2023-04-21T04:00:21.239Z,59.25
2023-04-21T04:03:50.617Z,62.84
2023-04-21T04:07:22.853Z,66.08
2023-04-21T04:10:54.866Z,66.04
2023-04-21T04:14:13.016Z,65.88
2023-04-21T04:17:20.913Z,65.45
2023-04-21T04:20:32.103Z,65.12
2023-04-21T04:24:16.554Z,64.32
2023-04-21T04:27:02.874Z,64.33
2023-04-21T04:29:57.962Z,63.59
2023-04-21T04:32:29.827Z,63.08
2023-04-21T04:35:13.296Z,62.80
2023-04-21T04:37:49.915Z,62.39
2023-04-21T04:40:35.286Z,62.15
2023-04-21T04:43:16.258Z,61.86
2023-04-21T04:45:45.761Z,61.66
2023-04-21T04:48:17.341Z,61.42
2023-04-21T04:50:53.481Z,61.33
2023-04-21T04:53:32.613Z,61.64
2023-04-21T04:56:09.911Z,61.78
2023-04-21T04:58:46.770Z,61.94
2023-04-21T05:01:29.404Z,61.61
2023-04-21T05:04:27.215Z,61.64
2023-04-21T05:07:13.079Z,61.84
2023-04-21T05:10:05.671Z,61.73
2023-04-21T05:12:46.954Z,61.61
2023-04-21T05:15:22.798Z,61.20
2023-04-21T05:18:01.989Z,60.75
2023-04-21T05:20:33.896Z,60.49
2023-04-21T05:23:25.109Z,60.24
2023-04-21T05:26:09.176Z,60.04
2023-04-21T05:28:51.251Z,59.91
2023-04-21T05:31:22.918Z,58.12
2023-04-21T05:34:06.755Z,56.28
2023-04-21T05:36:44.047Z,56.31
2023-04-21T05:39:18.143Z,57.60
2023-04-21T05:41:55.020Z,58.48
2023-04-21T05:44:29.333Z,61.33
2023-04-21T05:47:08.051Z,64.30
2023-04-21T05:49:44.419Z,64.70
2023-04-21T05:52:15.273Z,64.02
2023-04-21T05:54:51.446Z,63.65
2023-04-21T05:57:29.311Z,63.16
2023-04-21T06:00:04.695Z,62.36
2023-04-21T06:02:39.958Z,61.22
2023-04-21T06:05:17.409Z,60.88
2023-04-21T06:07:57.767Z,60.42
2023-04-21T06:10:31.747Z,57.73
2023-04-21T06:13:14.470Z,56.21
2023-04-21T06:15:43.422Z,56.77
2023-04-21T06:18:17.149Z,57.94
2023-04-21T06:20:57.012Z,58.84
2023-04-21T06:23:35.020Z,59.06
2023-04-21T06:26:09.606Z,62.65
2023-04-21T06:28:50.188Z,64.91
2023-04-21T06:31:36.612Z,64.99
2023-04-21T06:34:21.165Z,64.36
2023-04-21T06:37:13.685Z,63.29
2023-04-21T06:39:52.504Z,62.44
2023-04-21T06:42:32.398Z,61.88
2023-04-21T06:45:03.848Z,61.18
2023-04-21T06:47:32.073Z,58.33
2023-04-21T06:50:00.439Z,55.86
2023-04-21T06:52:28.628Z,56.19
2023-04-21T06:54:56.800Z,56.85
2023-04-21T06:57:25.039Z,57.01
2023-04-21T06:59:56.212Z,57.71
2023-04-21T07:02:30.324Z,58.16
2023-04-21T07:05:04.744Z,58.15
2023-04-21T07:07:41.214Z,58.92
2023-04-21T07:10:20.182Z,58.58
2023-04-21T07:12:59.809Z,58.83
2023-04-21T07:15:34.715Z,59.15
2023-04-21T07:18:06.721Z,62.06
2023-04-21T07:20:48.566Z,63.63
2023-04-21T07:23:22.780Z,61.28
2023-04-21T07:26:02.216Z,57.39
2023-04-21T07:28:42.986Z,56.10
2023-04-21T07:31:24.035Z,55.55
2023-04-21T07:34:02.989Z,56.27
2023-04-21T07:36:41.398Z,55.99
2023-04-21T07:39:22.527Z,57.40
2023-04-21T07:41:56.477Z,57.15
2023-04-21T07:44:29.560Z,57.68
2023-04-21T07:47:06.547Z,57.34
2023-04-21T07:49:50.996Z,57.03
2023-04-21T07:52:24.714Z,56.98
2023-04-21T07:54:56.721Z,57.56
2023-04-21T07:57:35.283Z,56.41
2023-04-21T08:00:04.882Z,56.76
2023-04-21T08:02:46.225Z,56.65
2023-04-21T08:05:30.131Z,56.72
2023-04-21T08:08:10.768Z,56.36
2023-04-21T08:10:44.469Z,56.11
2023-04-21T08:13:20.863Z,56.95
2023-04-21T08:15:55.553Z,57.60
2023-04-21T08:18:33.257Z,56.04
2023-04-21T08:21:04.866Z,55.76
2023-04-21T08:23:36.049Z,55.99
2023-04-21T08:26:13.545Z,55.94
2023-04-21T08:28:50.015Z,55.52
2023-04-21T08:31:24.587Z,55.14
2023-04-21T08:34:02.067Z,55.13
2023-04-21T08:36:34.290Z,54.77
2023-04-21T08:39:05.779Z,54.85
2023-04-21T08:41:34.728Z,53.83
2023-04-21T08:44:06.116Z,54.17
2023-04-21T08:46:38.851Z,54.27
2023-04-21T08:49:10.018Z,53.96
2023-04-21T08:51:38.782Z,53.73
2023-04-21T08:54:07.586Z,52.21
2023-04-21T08:56:40.491Z,51.81
2023-04-21T08:59:14.571Z,51.64
2023-04-21T09:02:17.863Z,50.53
2023-04-21T09:04:48.588Z,50.60
2023-04-21T09:07:39.343Z,49.06
2023-04-21T09:10:08.499Z,49.27
2023-04-21T09:12:40.053Z,48.83
2023-04-21T09:15:11.486Z,48.07
2023-04-21T09:17:40.007Z,46.12
2023-04-21T09:20:19.612Z,45.45
2023-04-21T09:22:54.054Z,45.56
2023-04-21T09:25:22.933Z,45.13
2023-04-21T09:27:51.289Z,45.54
2023-04-21T09:30:20.236Z,45.00
2023-04-21T09:32:49.763Z,45.70
2023-04-21T09:35:18.167Z,45.72
2023-04-21T09:37:46.610Z,44.74
2023-04-21T09:40:15.742Z,43.83
2023-04-21T09:42:45.025Z,44.00
2023-04-21T09:45:32.843Z,42.89
2023-04-21T09:48:08.892Z,42.02
2023-04-21T09:53:12.444Z,42.60
2023-04-21T09:55:42.356Z,40.68
2023-04-21T09:58:10.528Z,40.04
2023-04-21T10:00:40.113Z,39.57
2023-04-21T10:03:11.769Z,39.57
2023-04-21T10:05:42.379Z,39.08
2023-04-21T10:08:12.283Z,38.58
2023-04-21T10:10:40.710Z,39.16
2023-04-21T10:13:16.048Z,37.48
2023-04-21T10:15:44.591Z,37.69
2023-04-21T10:18:23.452Z,36.59
2023-04-21T10:20:53.408Z,37.00
2023-04-21T10:23:38.856Z,36.25
2023-04-21T10:26:13.988Z,35.59
2023-04-21T10:28:44.205Z,35.29
2023-04-21T10:31:29.655Z,34.41
2023-04-21T10:34:07.514Z,32.67
2023-04-21T10:36:45.793Z,33.26
2023-04-21T10:39:29.461Z,33.32
2023-04-21T10:42:16.130Z,33.37
2023-04-21T10:44:56.754Z,33.90
2023-04-21T10:47:29.487Z,33.85
2023-04-21T10:49:58.872Z,33.32
2023-04-21T10:52:33.082Z,33.04
2023-04-21T10:55:01.279Z,30.93
2023-04-21T10:57:33.647Z,30.26
2023-04-21T11:00:02.000Z,29.19
2023-04-21T11:02:30.477Z,28.89
2023-04-21T11:04:59.478Z,29.29
2023-04-21T11:07:28.156Z,29.14
2023-04-21T11:10:03.096Z,29.91
2023-04-21T11:12:33.520Z,30.77
2023-04-21T11:15:08.177Z,31.52
2023-04-21T11:17:38.671Z,32.00
2023-04-21T11:20:08.052Z,31.70
2023-04-21T11:22:37.052Z,31.12
2023-04-21T11:25:05.957Z,29.86
2023-04-21T11:27:34.234Z,30.25
2023-04-21T11:30:04.149Z,29.89
2023-04-21T11:32:32.517Z,29.53
2023-04-21T11:35:01.086Z,29.86
2023-04-21T11:37:29.268Z,29.50
2023-04-21T11:40:01.269Z,30.01
2023-04-21T11:42:30.726Z,30.97
2023-04-21T11:44:59.308Z,31.35
2023-04-21T11:47:28.715Z,31.16
2023-04-21T11:50:02.123Z,30.56
2023-04-21T11:52:37.573Z,28.79
2023-04-21T11:55:13.038Z,29.25
2023-04-21T11:57:41.775Z,29.30
2023-04-21T12:00:12.319Z,28.72
2023-04-21T12:02:41.044Z,28.98
2023-04-21T12:05:11.741Z,28.40
2023-04-21T12:07:48.191Z,27.82
2023-04-21T12:10:22.605Z,27.86
2023-04-21T12:12:51.939Z,27.11
2023-04-21T12:15:22.999Z,26.84
2023-04-21T12:17:53.282Z,26.65
2023-04-21T12:20:26.657Z,25.72
2023-04-21T12:22:54.838Z,26.10
2023-04-21T12:25:23.004Z,26.15
2023-04-21T12:27:59.773Z,25.91
2023-04-21T12:30:28.302Z,26.58
2023-04-21T12:32:56.675Z,26.71
2023-04-21T12:35:26.074Z,26.20
2023-04-21T12:37:54.317Z,26.11
2023-04-21T12:40:22.498Z,26.37
2023-04-21T12:42:51.162Z,25.23
2023-04-21T12:45:19.334Z,25.16
2023-04-21T12:47:47.602Z,25.01
2023-04-21T12:50:16.604Z,24.97
2023-04-21T12:52:44.797Z,24.98
2023-04-21T12:55:13.690Z,24.66
2023-04-21T12:57:41.945Z,24.94
2023-04-21T13:00:12.578Z,25.47
2023-04-21T13:02:41.969Z,25.32
2023-04-21T13:05:12.302Z,25.59
2023-04-21T13:07:40.466Z,25.31
2023-04-21T13:10:09.252Z,25.67
2023-04-21T13:12:37.484Z,26.11
2023-04-21T13:15:06.629Z,25.43
2023-04-21T13:17:34.812Z,23.99
2023-04-21T13:20:03.751Z,24.18
2023-04-21T13:22:32.060Z,24.73
2023-04-21T13:25:00.278Z,24.89
2023-04-21T13:27:28.607Z,24.92
2023-04-21T13:29:57.611Z,24.35
2023-04-21T13:32:25.992Z,24.29
2023-04-21T13:34:54.965Z,24.00
2023-04-21T13:37:23.164Z,24.53
2023-04-21T13:39:51.311Z,24.74
2023-04-21T13:42:19.690Z,25.32
2023-04-21T13:44:47.864Z,25.48
2023-04-21T13:47:16.240Z,25.70
2023-04-21T13:49:44.411Z,25.57
2023-04-21T13:52:12.585Z,25.17
2023-04-21T13:54:40.771Z,23.75
2023-04-21T13:57:09.173Z,23.47
2023-04-21T13:59:37.281Z,23.75
2023-04-21T14:02:05.583Z,24.01
2023-04-21T14:04:34.139Z,24.24
2023-04-21T14:07:03.357Z,23.84
2023-04-21T14:09:31.780Z,24.34
2023-04-21T14:12:00.315Z,23.76
2023-04-21T14:14:38.906Z,24.50
2023-04-21T14:17:08.246Z,24.17
2023-04-21T14:19:36.879Z,24.28
2023-04-21T14:22:05.857Z,24.23
2023-04-21T14:24:34.206Z,23.45
2023-04-21T14:27:02.463Z,23.86
2023-04-21T14:29:31.064Z,23.96
2023-04-21T14:31:59.607Z,24.15
2023-04-21T14:34:27.847Z,24.00
2023-04-21T14:36:56.896Z,23.67
2023-04-21T14:39:25.063Z,23.62
2023-04-21T14:41:53.438Z,22.43
2023-04-21T14:44:21.837Z,22.48
2023-04-21T14:47:00.856Z,22.70
2023-04-21T14:49:38.406Z,23.23
2023-04-21T14:52:07.350Z,22.44
2023-04-21T14:54:35.592Z,22.65
2023-04-21T14:57:19.056Z,22.82
2023-04-21T14:59:51.200Z,23.47
2023-04-21T15:02:20.860Z,23.29
2023-04-21T15:04:50.586Z,23.41
2023-04-21T15:07:23.861Z,23.47
2023-04-21T15:09:53.534Z,23.67
2023-04-21T15:12:21.966Z,23.55
2023-04-21T15:14:50.168Z,22.67
2023-04-21T15:17:18.643Z,22.74
2023-04-21T15:19:46.820Z,22.72
2023-04-21T15:22:15.804Z,22.71
2023-04-21T15:24:44.095Z,22.52
2023-04-21T15:27:12.557Z,22.28
2023-04-21T15:29:40.936Z,22.73
2023-04-21T15:32:09.928Z,22.51
2023-04-21T15:34:38.105Z,22.23
2023-04-21T15:37:06.273Z,22.39
2023-04-21T15:39:34.699Z,22.63
2023-04-21T15:42:04.686Z,22.35
2023-04-21T15:44:34.324Z,21.96
2023-04-21T15:47:03.106Z,22.20
2023-04-21T15:49:31.571Z,22.09
2023-04-21T15:51:59.842Z,21.80
2023-04-21T15:54:28.298Z,22.64
2023-04-21T15:56:57.803Z,23.39
2023-04-21T15:59:26.237Z,23.22
2023-04-21T16:01:56.972Z,23.47
2023-04-21T16:04:25.385Z,22.80
2023-04-21T16:06:53.873Z,23.19
2023-04-21T16:09:22.135Z,23.31
2023-04-21T16:11:50.619Z,23.66
2023-04-21T16:14:19.314Z,23.65
2023-04-21T16:16:47.666Z,23.69
2023-04-21T16:19:16.698Z,24.02
2023-04-21T16:21:45.264Z,24.27
2023-04-21T16:24:13.536Z,24.55
2023-04-21T16:26:41.930Z,25.26
2023-04-21T16:29:10.130Z,25.56
2023-04-21T16:31:38.401Z,26.40
2023-04-21T16:34:06.639Z,26.95
2023-04-21T16:36:35.356Z,27.39
2023-04-21T16:39:03.786Z,27.66
2023-04-21T16:41:32.083Z,27.64
2023-04-21T16:44:00.901Z,28.21
2023-04-21T16:46:29.263Z,28.19
2023-04-21T16:48:57.652Z,28.53
2023-04-21T16:51:28.718Z,29.16
2023-04-21T16:53:57.238Z,29.42
2023-04-21T16:56:25.916Z,30.34
2023-04-21T16:58:54.192Z,31.42
2023-04-21T17:01:22.420Z,30.94
2023-04-21T17:03:50.936Z,31.46
2023-04-21T17:06:21.447Z,32.04
2023-04-21T17:08:50.049Z,32.28
2023-04-21T17:11:18.646Z,32.39
2023-04-21T17:13:47.013Z,32.47
2023-04-21T17:16:15.435Z,32.76
2023-04-21T17:18:44.064Z,34.22
2023-04-21T17:21:12.867Z,34.27
2023-04-21T17:23:41.535Z,34.75
2023-04-21T17:26:12.887Z,34.57
2023-04-21T17:28:41.675Z,34.56
2023-04-21T17:31:15.805Z,34.74
2023-04-21T17:33:45.402Z,35.13
2023-04-21T17:36:13.969Z,35.66
2023-04-21T17:38:43.206Z,36.22
2023-04-21T17:41:11.947Z,36.77
2023-04-21T17:43:42.791Z,36.55
2023-04-21T17:46:11.535Z,37.05
2023-04-21T17:48:40.051Z,37.23
2023-04-21T17:51:09.562Z,37.50
2023-04-21T17:53:37.940Z,37.70
2023-04-21T17:56:06.534Z,38.94
2023-04-21T17:58:38.378Z,39.67
2023-04-21T18:01:09.578Z,39.41
2023-04-21T18:03:41.413Z,39.48
2023-04-21T18:06:11.512Z,40.24
2023-04-21T18:08:40.081Z,40.79
2023-04-21T18:11:12.454Z,41.48
2023-04-21T18:13:43.689Z,41.92
2023-04-21T18:16:14.966Z,42.65
2023-04-21T18:18:47.518Z,43.05
2023-04-21T18:21:18.448Z,43.72
2023-04-21T18:23:47.339Z,44.44
2023-04-21T18:26:18.483Z,44.95
2023-04-21T18:28:50.371Z,45.22
2023-04-21T18:31:26.269Z,45.55
2023-04-21T18:34:00.504Z,46.20
2023-04-21T18:36:33.518Z,47.08
2023-04-21T18:39:03.227Z,47.61
2023-04-21T18:41:34.957Z,48.61
2023-04-21T18:44:11.213Z,48.70
2023-04-21T18:46:43.063Z,49.45
2023-04-21T18:49:14.730Z,49.58
2023-04-21T18:51:48.430Z,49.48
2023-04-21T18:54:19.799Z,50.39
2023-04-21T18:56:57.992Z,50.63
2023-04-21T18:59:34.961Z,50.49
2023-04-21T19:02:07.676Z,51.93
2023-04-21T19:04:36.922Z,52.59
2023-04-21T19:07:18.631Z,53.17
2023-04-21T19:09:54.790Z,53.56
2023-04-21T19:12:31.460Z,54.14
2023-04-21T19:15:20.008Z,54.94
2023-04-21T19:17:56.141Z,55.13
2023-04-21T19:20:47.994Z,56.15
2023-04-21T19:23:24.251Z,55.96
2023-04-21T19:26:05.231Z,56.96
2023-04-21T19:28:40.021Z,57.26
2023-04-21T19:31:21.719Z,57.00
2023-04-21T19:34:21.666Z,57.53
2023-04-21T19:37:21.582Z,58.37
2023-04-21T19:40:10.639Z,58.86
2023-04-21T19:42:47.523Z,58.93
2023-04-21T19:45:46.652Z,58.27
2023-04-21T19:48:42.972Z,59.42
2023-04-21T19:51:33.959Z,59.65
2023-04-21T19:54:22.619Z,63.05
2023-04-21T19:57:01.873Z,66.22
2023-04-21T19:59:41.482Z,65.78
2023-04-21T20:02:25.176Z,63.89
2023-04-21T20:05:15.720Z,60.27
2023-04-21T20:07:57.608Z,56.41
2023-04-21T20:10:42.164Z,56.44
2023-04-21T20:13:33.171Z,56.96
2023-04-21T20:16:18.402Z,57.49
2023-04-21T20:18:50.176Z,58.15
2023-04-21T20:21:44.379Z,58.81
2023-04-21T20:24:24.242Z,59.32
2023-04-21T20:27:12.162Z,59.96
2023-04-21T20:30:11.872Z,62.88
2023-04-21T20:33:11.428Z,66.17
2023-04-21T20:35:46.213Z,65.76
2023-04-21T20:38:49.709Z,64.10
2023-04-21T20:41:35.201Z,60.17
2023-04-21T20:44:43.855Z,56.87
2023-04-21T20:47:23.667Z,55.77
2023-04-21T20:50:15.520Z,56.40
2023-04-21T20:53:12.426Z,57.43
2023-04-21T20:55:53.090Z,57.82
2023-04-21T20:59:02.036Z,58.96
2023-04-21T21:01:42.686Z,59.47
2023-04-21T21:04:36.609Z,62.79
2023-04-21T21:07:21.319Z,65.77
2023-04-21T21:10:11.611Z,65.55
2023-04-21T21:13:00.257Z,64.23
2023-04-21T21:15:58.266Z,63.32
2023-04-21T21:18:39.516Z,62.72
2023-04-21T21:21:48.040Z,59.31
2023-04-21T21:24:37.627Z,55.94
2023-04-21T21:27:22.679Z,55.93
2023-04-21T21:30:15.431Z,56.34
2023-04-21T21:33:02.278Z,57.35
2023-04-21T21:35:54.275Z,58.00
2023-04-21T21:38:40.151Z,59.09
2023-04-21T21:41:41.399Z,59.34
2023-04-21T21:45:09.572Z,59.54
2023-04-21T21:48:05.545Z,63.93
2023-04-21T21:50:56.602Z,66.66
2023-04-21T21:53:39.622Z,66.28
2023-04-21T21:56:29.709Z,64.94
2023-04-21T21:59:24.201Z,64.01
2023-04-21T22:02:42.664Z,63.46
2023-04-21T22:05:34.789Z,62.40
2023-04-21T22:08:32.651Z,61.59
2023-04-21T22:11:19.765Z,58.48
2023-04-21T22:14:23.682Z,56.55
2023-04-21T22:17:16.221Z,56.48
2023-04-21T22:19:57.714Z,57.35
2023-04-21T22:22:48.609Z,58.26
2023-04-21T22:25:51.597Z,58.74
2023-04-21T22:28:36.769Z,62.01
2023-04-21T22:31:34.272Z,64.89
2023-04-21T22:34:38.852Z,64.88
2023-04-21T22:37:46.980Z,64.82
2023-04-21T22:40:27.321Z,64.03
2023-04-21T22:43:25.595Z,63.54
2023-04-21T22:46:19.692Z,62.97
2023-04-21T22:49:28.807Z,62.50
2023-04-21T22:53:10.326Z,61.48
2023-04-21T22:56:06.897Z,58.35
2023-04-21T22:59:17.909Z,56.65
2023-04-21T23:02:20.699Z,56.73
2023-04-21T23:05:18.478Z,57.69
2023-04-21T23:08:30.146Z,58.21
2023-04-21T23:11:40.211Z,57.39
2023-04-21T23:14:48.421Z,62.93
2023-04-21T23:17:49.804Z,65.99
2023-04-21T23:20:54.191Z,66.19
2023-04-21T23:23:42.825Z,65.60
2023-04-21T23:26:56.175Z,64.90
2023-04-21T23:30:19.437Z,64.13
2023-04-21T23:33:25.709Z,63.44
2023-04-21T23:36:32.475Z,62.82
2023-04-21T23:39:41.507Z,62.21
2023-04-21T23:42:33.131Z,61.87
2023-04-21T23:46:04.958Z,61.41
2023-04-21T23:49:26.204Z,61.22
2023-04-21T23:52:35.324Z,60.97
2023-04-21T23:55:35.767Z,60.60
2023-04-21T23:58:52.787Z,60.59
